createdAt,value
2023-04-30T00:00:17.222Z,102451.09
2023-04-30T00:02:44.945Z,102444.88
2023-04-30T00:05:13.923Z,102439.50
2023-04-30T00:07:42.573Z,102438.63
2023-04-30T00:10:11.390Z,102441.34
2023-04-30T00:12:39.633Z,102439.59
2023-04-30T00:15:08.281Z,102438.72
2023-04-30T00:17:36.023Z,102442.31
2023-04-30T00:20:03.725Z,102441.44
2023-04-30T00:22:33.362Z,102443.25
2023-04-30T00:25:01.249Z,102451.31
2023-04-30T00:27:28.907Z,102445.97
2023-04-30T00:29:56.795Z,102443.31
2023-04-30T00:32:24.603Z,102443.31
2023-04-30T00:34:52.368Z,102444.22
2023-04-30T00:37:20.033Z,102445.16
2023-04-30T00:39:49.151Z,102447.84
2023-04-30T00:42:16.902Z,102453.19
2023-04-30T00:44:44.483Z,102450.50
2023-04-30T00:47:12.185Z,102458.59
2023-04-30T00:49:40.024Z,102459.47
2023-04-30T00:52:07.992Z,102459.53
2023-04-30T00:54:36.379Z,102455.06
2023-04-30T00:57:06.812Z,102451.53
2023-04-30T00:59:35.015Z,102451.56
2023-04-30T01:02:03.888Z,102455.13
2023-04-30T01:04:33.096Z,102456.06
2023-04-30T01:07:02.159Z,102450.69
2023-04-30T01:09:30.262Z,102460.50
2023-04-30T01:12:03.664Z,102455.19
2023-04-30T01:14:43.174Z,102456.97
2023-04-30T01:17:22.778Z,102453.41
2023-04-30T01:19:50.827Z,102456.13
2023-04-30T01:22:32.791Z,102458.81
2023-04-30T01:25:15.431Z,102455.28
2023-04-30T01:28:08.827Z,102455.28
2023-04-30T01:30:37.348Z,102455.31
2023-04-30T01:33:05.339Z,102449.03
2023-04-30T01:36:04.725Z,102454.44
2023-04-30T01:38:49.613Z,102458.94
2023-04-30T01:41:27.861Z,102451.78
2023-04-30T01:44:09.040Z,102451.78
2023-04-30T01:46:36.846Z,102446.47
2023-04-30T01:49:13.219Z,102452.72
2023-04-30T01:51:42.748Z,102454.53
2023-04-30T01:54:20.543Z,102454.53
2023-04-30T01:56:57.606Z,102450.94
2023-04-30T01:59:26.775Z,102448.28
2023-04-30T02:01:57.342Z,102456.34
2023-04-30T02:04:25.192Z,102445.69
2023-04-30T02:06:53.100Z,102448.34
2023-04-30T02:09:20.776Z,102443.91
2023-04-30T02:11:48.391Z,102440.34
2023-04-30T02:14:16.108Z,102440.34
2023-04-30T02:16:45.100Z,102442.13
2023-04-30T02:19:12.839Z,102442.13
2023-04-30T02:21:40.598Z,102443.00
2023-04-30T02:24:08.364Z,102427.88
2023-04-30T02:26:36.032Z,102435.03
2023-04-30T02:29:03.707Z,102429.69
2023-04-30T02:31:31.391Z,102427.94
2023-04-30T02:34:00.399Z,102424.31
2023-04-30T02:36:28.070Z,102423.44
2023-04-30T02:38:55.816Z,102417.22
2023-04-30T02:41:23.567Z,102420.78
2023-04-30T02:43:51.674Z,102424.38
2023-04-30T02:46:19.631Z,102416.34
2023-04-30T02:48:47.391Z,102414.56
2023-04-30T02:51:16.456Z,102417.25
2023-04-30T02:53:44.087Z,102416.38
2023-04-30T02:56:11.726Z,102418.16
2023-04-30T02:58:39.382Z,102411.97
2023-04-30T03:01:07.052Z,102414.63
2023-04-30T03:03:34.676Z,102413.75
2023-04-30T03:06:02.290Z,102411.09
2023-04-30T03:08:31.284Z,102414.63
2023-04-30T03:10:58.897Z,102410.19
2023-04-30T03:13:26.668Z,102413.78
2023-04-30T03:15:59.109Z,102408.44
2023-04-30T03:18:26.851Z,102410.22
2023-04-30T03:20:54.473Z,102410.22
2023-04-30T03:23:22.636Z,102416.47
2023-04-30T03:25:51.820Z,102414.69
2023-04-30T03:28:19.513Z,102409.38
2023-04-30T03:30:47.796Z,102410.25
2023-04-30T03:33:15.445Z,102408.50
2023-04-30T03:35:43.275Z,102416.53
2023-04-30T03:38:10.938Z,102412.09
2023-04-30T03:40:38.517Z,102412.09
2023-04-30T03:43:07.816Z,102421.91
2023-04-30T03:45:35.420Z,102421.91
2023-04-30T03:48:03.238Z,102421.91
2023-04-30T03:50:31.296Z,102419.25
2023-04-30T03:52:59.052Z,102414.81
2023-04-30T03:55:27.080Z,102419.28
2023-04-30T03:57:54.898Z,102423.72
2023-04-30T04:00:23.887Z,102425.50
2023-04-30T04:02:51.685Z,102423.75
2023-04-30T04:05:19.381Z,102426.44
2023-04-30T04:07:47.008Z,102422.88
2023-04-30T04:10:14.738Z,102418.41
2023-04-30T04:12:42.339Z,102415.75
2023-04-30T04:15:10.989Z,102422.91
2023-04-30T04:17:40.077Z,102417.53
2023-04-30T04:20:10.122Z,102419.31
2023-04-30T04:22:39.235Z,102414.00
2023-04-30T04:25:08.707Z,102410.44
2023-04-30T04:27:36.460Z,102422.00
2023-04-30T04:30:05.061Z,102416.69
2023-04-30T04:32:32.755Z,102416.69
2023-04-30T04:35:01.805Z,102417.59
2023-04-30T04:37:29.452Z,102426.50
2023-04-30T04:39:57.137Z,102436.31
2023-04-30T04:42:24.812Z,102434.56
2023-04-30T04:44:52.445Z,102439.00
2023-04-30T04:47:22.945Z,102441.69
2023-04-30T04:49:50.620Z,102439.88
2023-04-30T04:52:19.635Z,102447.03
2023-04-30T04:54:47.209Z,102446.16
2023-04-30T04:57:14.785Z,102445.25
2023-04-30T04:59:42.761Z,102444.38
2023-04-30T05:02:10.505Z,102449.72
2023-04-30T05:04:38.187Z,102463.97
2023-04-30T05:07:07.592Z,102450.63
2023-04-30T05:09:36.782Z,102448.81
2023-04-30T05:12:04.692Z,102455.06
2023-04-30T05:14:32.371Z,102455.06
2023-04-30T05:17:00.044Z,102447.06
2023-04-30T05:19:27.678Z,102452.34
2023-04-30T05:21:55.458Z,102455.03
2023-04-30T05:24:23.126Z,102449.63
2023-04-30T05:26:52.090Z,102442.47
2023-04-30T05:29:19.688Z,102452.28
2023-04-30T05:31:47.409Z,102449.56
2023-04-30T05:34:15.534Z,102456.69
2023-04-30T05:36:44.479Z,102458.44
2023-04-30T05:39:12.392Z,102464.69
2023-04-30T05:41:39.990Z,102463.81
2023-04-30T05:44:09.060Z,102469.16
2023-04-30T05:46:36.715Z,102467.41
2023-04-30T05:49:04.363Z,102471.00
2023-04-30T05:51:32.596Z,102465.63
2023-04-30T05:54:00.441Z,102472.75
2023-04-30T05:56:27.984Z,102470.09
2023-04-30T05:58:55.677Z,102473.66
2023-04-30T06:01:28.798Z,102477.22
2023-04-30T06:03:56.580Z,102472.78
2023-04-30T06:06:24.221Z,102481.69
2023-04-30T06:08:51.820Z,102477.25
2023-04-30T06:11:19.504Z,102474.56
2023-04-30T06:13:48.972Z,102479.03
2023-04-30T06:16:16.672Z,102477.28
2023-04-30T06:18:45.750Z,102473.69
2023-04-30T06:21:13.448Z,102475.50
2023-04-30T06:23:41.139Z,102476.38
2023-04-30T06:26:08.846Z,102486.19
2023-04-30T06:28:36.506Z,102485.31
2023-04-30T06:31:04.408Z,102485.31
2023-04-30T06:33:31.976Z,102489.72
2023-04-30T06:36:00.931Z,102486.19
2023-04-30T06:38:28.518Z,102490.63
2023-04-30T06:40:56.225Z,102482.63
2023-04-30T06:43:24.333Z,102491.50
2023-04-30T06:45:51.942Z,102497.75
2023-04-30T06:48:19.550Z,102502.22
2023-04-30T06:50:48.009Z,102503.09
2023-04-30T06:53:17.191Z,102492.41
2023-04-30T06:55:46.454Z,102490.66
2023-04-30T06:58:14.108Z,102499.56
2023-04-30T07:00:42.338Z,102507.56
2023-04-30T07:03:10.091Z,102508.44
2023-04-30T07:05:37.875Z,102497.78
2023-04-30T07:08:06.100Z,102504.03
2023-04-30T07:10:35.208Z,102505.78
2023-04-30T07:13:02.778Z,102508.47
2023-04-30T07:15:30.449Z,102504.91
2023-04-30T07:17:58.129Z,102510.28
2023-04-30T07:20:25.961Z,102501.34
2023-04-30T07:22:54.988Z,102499.56
2023-04-30T07:25:22.669Z,102500.44
2023-04-30T07:27:52.783Z,102505.81
2023-04-30T07:30:20.748Z,102508.50
2023-04-30T07:32:50.259Z,102506.69
2023-04-30T07:35:18.166Z,102502.25
2023-04-30T07:37:45.864Z,102500.44
2023-04-30T07:40:21.987Z,102493.31
2023-04-30T07:42:57.788Z,102496.88
2023-04-30T07:45:25.588Z,102494.19
2023-04-30T07:47:53.304Z,102493.31
2023-04-30T07:50:20.890Z,102495.06
2023-04-30T07:52:50.387Z,102492.41
2023-04-30T07:55:17.987Z,102484.41
2023-04-30T07:57:45.788Z,102494.19
2023-04-30T08:00:16.474Z,102492.41
2023-04-30T08:02:46.030Z,102491.50
2023-04-30T08:05:14.058Z,102495.03
2023-04-30T08:07:42.120Z,102501.28
2023-04-30T08:10:10.196Z,102505.72
2023-04-30T08:12:38.258Z,102504.78
2023-04-30T08:15:07.690Z,102502.97
2023-04-30T08:17:37.655Z,102501.16
2023-04-30T08:20:06.862Z,102499.38
2023-04-30T08:22:35.307Z,102501.09
2023-04-30T08:25:03.204Z,102494.78
2023-04-30T08:27:33.044Z,102500.84
2023-04-30T08:30:01.012Z,102492.69
2023-04-30T08:32:29.187Z,102496.97
2023-04-30T08:34:58.294Z,102508.38
2023-04-30T08:37:26.066Z,102499.31
2023-04-30T08:39:54.730Z,102493.81
2023-04-30T08:42:27.174Z,102495.47
2023-04-30T08:44:54.986Z,102493.63
2023-04-30T08:47:25.418Z,102504.19
2023-04-30T08:49:53.573Z,102497.84
2023-04-30T08:52:23.585Z,102502.16
2023-04-30T08:54:54.299Z,102494.03
2023-04-30T08:57:22.234Z,102498.47
2023-04-30T08:59:50.055Z,102499.28
2023-04-30T09:02:17.729Z,102504.50
2023-04-30T09:04:45.980Z,102503.53
2023-04-30T09:07:15.038Z,102503.47
2023-04-30T09:09:44.195Z,102509.63
2023-04-30T09:12:17.812Z,102510.44
2023-04-30T09:14:59.904Z,102501.34
2023-04-30T09:17:28.068Z,102511.19
2023-04-30T09:20:07.034Z,102503.06
2023-04-30T09:22:36.582Z,102510.09
2023-04-30T09:25:06.841Z,102509.16
2023-04-30T09:27:35.296Z,102502.00
2023-04-30T09:30:03.462Z,102496.56
2023-04-30T09:32:32.492Z,102492.03
2023-04-30T09:35:00.384Z,102489.31
2023-04-30T09:37:37.633Z,102483.88
2023-04-30T09:40:08.205Z,102486.50
2023-04-30T09:42:36.588Z,102485.66
2023-04-30T09:45:06.645Z,102490.13
2023-04-30T09:47:35.866Z,102487.34
2023-04-30T09:50:04.281Z,102483.84
2023-04-30T09:52:31.964Z,102476.59
2023-04-30T09:55:00.535Z,102482.72
2023-04-30T09:57:36.478Z,102474.56
2023-04-30T10:00:05.638Z,102473.63
2023-04-30T10:02:34.442Z,102469.94
2023-04-30T10:05:02.666Z,102472.53
2023-04-30T10:07:40.178Z,102477.81
2023-04-30T10:10:10.739Z,102464.34
2023-04-30T10:12:45.296Z,102466.91
2023-04-30T10:15:18.762Z,102467.72
2023-04-30T10:17:51.379Z,102463.22
2023-04-30T10:20:22.767Z,102468.56
2023-04-30T10:22:51.901Z,102468.50
2023-04-30T10:25:20.106Z,102459.47
2023-04-30T10:27:49.327Z,102456.56
2023-04-30T10:30:17.943Z,102457.34
2023-04-30T10:32:52.906Z,102456.44
2023-04-30T10:35:25.606Z,102449.63
2023-04-30T10:37:59.168Z,102449.78
2023-04-30T10:40:28.371Z,102453.50
2023-04-30T10:42:57.478Z,102462.72
2023-04-30T10:45:37.766Z,102449.50
2023-04-30T10:48:06.908Z,102446.06
2023-04-30T10:50:44.344Z,102443.53
2023-04-30T10:53:16.059Z,102436.50
2023-04-30T10:55:49.481Z,102433.91
2023-04-30T10:58:30.913Z,102435.78
2023-04-30T11:01:08.047Z,102432.22
2023-04-30T11:03:37.189Z,102430.44
2023-04-30T11:06:13.497Z,102425.09
2023-04-30T11:08:44.919Z,102422.34
2023-04-30T11:11:15.079Z,102419.69
2023-04-30T11:13:46.403Z,102417.91
2023-04-30T11:16:14.504Z,102417.94
2023-04-30T11:18:46.260Z,102414.34
2023-04-30T11:21:14.178Z,102408.13
2023-04-30T11:23:44.088Z,102409.06
2023-04-30T11:26:11.972Z,102409.06
2023-04-30T11:28:39.741Z,102406.34
2023-04-30T11:31:08.814Z,102405.44
2023-04-30T11:33:36.747Z,102399.19
2023-04-30T11:36:04.711Z,102401.84
2023-04-30T11:38:36.313Z,102397.38
2023-04-30T11:41:05.202Z,102396.50
2023-04-30T11:43:33.982Z,102398.34
2023-04-30T11:46:09.275Z,102384.03
2023-04-30T11:48:39.147Z,102383.13
2023-04-30T11:51:15.444Z,102384.91
2023-04-30T11:53:43.521Z,102375.09
2023-04-30T11:56:11.203Z,102365.25
2023-04-30T11:58:40.189Z,102359.00
2023-04-30T12:01:10.960Z,102358.84
2023-04-30T12:03:43.117Z,102351.56
2023-04-30T12:06:12.470Z,102355.03
2023-04-30T12:08:42.786Z,102358.50
2023-04-30T12:11:21.675Z,102360.16
2023-04-30T12:13:53.785Z,102350.19
2023-04-30T12:16:23.618Z,102357.25
2023-04-30T12:18:52.839Z,102357.19
2023-04-30T12:21:22.846Z,102347.31
2023-04-30T12:23:50.742Z,102351.69
2023-04-30T12:26:19.114Z,102352.47
2023-04-30T12:28:48.989Z,102348.72
2023-04-30T12:31:19.070Z,102339.53
2023-04-30T12:33:57.089Z,102341.09
2023-04-30T12:36:32.209Z,102346.31
2023-04-30T12:39:13.167Z,102338.03
2023-04-30T12:41:43.177Z,102336.97
2023-04-30T12:44:22.288Z,102338.97
2023-04-30T12:46:53.426Z,102343.69
2023-04-30T12:49:27.838Z,102339.47
2023-04-30T12:52:02.031Z,102337.84
2023-04-30T12:54:34.649Z,102337.97
2023-04-30T12:57:03.840Z,102336.28
2023-04-30T12:59:33.238Z,102327.47
2023-04-30T13:02:09.185Z,102332.03
2023-04-30T13:04:39.180Z,102332.13
2023-04-30T13:07:07.914Z,102321.41
2023-04-30T13:09:36.938Z,102328.63
2023-04-30T13:12:06.552Z,102317.94
2023-04-30T13:14:34.831Z,102315.31
2023-04-30T13:17:05.640Z,102318.03
2023-04-30T13:19:34.091Z,102309.13
2023-04-30T13:22:03.370Z,102309.16
2023-04-30T13:24:31.654Z,102302.00
2023-04-30T13:27:00.129Z,102301.16
2023-04-30T13:29:28.118Z,102299.38
2023-04-30T13:31:56.223Z,102297.63
2023-04-30T13:34:24.357Z,102291.38
2023-04-30T13:36:53.743Z,102291.38
2023-04-30T13:39:23.464Z,102295.94
2023-04-30T13:41:51.859Z,102293.25
2023-04-30T13:44:20.109Z,102296.09
2023-04-30T13:46:48.149Z,102289.94
2023-04-30T13:49:16.432Z,102285.50
2023-04-30T13:51:44.378Z,102279.31
2023-04-30T13:54:12.119Z,102278.50
2023-04-30T13:56:41.689Z,102274.81
2023-04-30T13:59:09.598Z,102272.09
2023-04-30T14:01:37.281Z,102265.09
2023-04-30T14:04:05.528Z,102258.94
2023-04-30T14:06:33.355Z,102255.41
2023-04-30T14:09:02.284Z,102252.63
2023-04-30T14:11:30.554Z,102249.88
2023-04-30T14:13:59.838Z,102256.13
2023-04-30T14:16:28.903Z,102258.00
2023-04-30T14:18:56.880Z,102248.16
2023-04-30T14:21:24.487Z,102250.75
2023-04-30T14:23:52.202Z,102254.38
2023-04-30T14:26:20.532Z,102245.47
2023-04-30T14:28:48.541Z,102240.94
2023-04-30T14:31:18.364Z,102239.06
2023-04-30T14:33:46.632Z,102250.63
2023-04-30T14:36:14.503Z,102246.16
2023-04-30T14:38:42.246Z,102240.72
2023-04-30T14:41:10.488Z,102239.81
2023-04-30T14:43:38.296Z,102233.53
2023-04-30T14:46:06.991Z,102233.47
2023-04-30T14:48:36.390Z,102229.88
2023-04-30T14:51:04.773Z,102233.38
2023-04-30T14:53:33.180Z,102226.25
2023-04-30T14:56:00.983Z,102215.47
2023-04-30T14:58:28.814Z,102222.59
2023-04-30T15:00:56.902Z,102220.81
2023-04-30T15:03:24.852Z,102218.16
2023-04-30T15:05:54.084Z,102211.88
2023-04-30T15:08:22.134Z,102207.38
2023-04-30T15:10:50.182Z,102204.72
2023-04-30T15:13:18.272Z,102203.75
2023-04-30T15:15:47.023Z,102200.16
2023-04-30T15:18:16.017Z,102189.44
2023-04-30T15:20:43.831Z,102189.59
2023-04-30T15:23:13.531Z,102188.63
2023-04-30T15:25:43.347Z,102188.50
2023-04-30T15:28:12.107Z,102184.97
2023-04-30T15:30:39.859Z,102184.97
2023-04-30T15:33:07.778Z,102179.59
2023-04-30T15:35:35.895Z,102182.28
2023-04-30T15:38:03.684Z,102179.59
2023-04-30T15:40:33.046Z,102175.97
2023-04-30T15:43:00.819Z,102184.88
2023-04-30T15:45:29.888Z,102176.88
2023-04-30T15:47:58.242Z,102176.78
2023-04-30T15:50:26.655Z,102176.72
2023-04-30T15:52:54.645Z,102165.97
2023-04-30T15:55:23.346Z,102168.66
2023-04-30T15:57:53.219Z,102163.25
2023-04-30T16:00:24.280Z,102157.88
2023-04-30T16:02:52.865Z,102156.13
2023-04-30T16:05:21.345Z,102156.94
2023-04-30T16:07:49.327Z,102146.16
2023-04-30T16:10:18.213Z,102150.56
2023-04-30T16:12:46.153Z,102143.38
2023-04-30T16:15:15.500Z,102144.28
2023-04-30T16:17:43.799Z,102139.75
2023-04-30T16:20:13.207Z,102129.00
2023-04-30T16:22:41.277Z,102127.25
2023-04-30T16:25:11.231Z,102131.69
2023-04-30T16:27:39.528Z,102130.75
2023-04-30T16:30:09.361Z,102128.97
2023-04-30T16:32:39.259Z,102121.75
2023-04-30T16:35:09.667Z,102121.72
2023-04-30T16:37:37.713Z,102123.50
2023-04-30T16:40:07.765Z,102118.13
2023-04-30T16:42:36.614Z,102123.47
2023-04-30T16:45:05.597Z,102111.81
2023-04-30T16:47:33.622Z,102110.00
2023-04-30T16:50:03.963Z,102109.97
2023-04-30T16:52:33.209Z,102115.31
2023-04-30T16:55:02.270Z,102107.25
2023-04-30T16:57:30.407Z,102111.72
2023-04-30T16:59:58.791Z,102110.75
2023-04-30T17:02:27.256Z,102105.38
2023-04-30T17:04:55.632Z,102105.38
2023-04-30T17:07:25.628Z,102100.00
2023-04-30T17:09:54.803Z,102099.19
2023-04-30T17:12:23.943Z,102097.47
2023-04-30T17:14:52.292Z,102095.66
2023-04-30T17:17:20.697Z,102094.81
2023-04-30T17:19:49.294Z,102092.19
2023-04-30T17:22:19.998Z,102096.66
2023-04-30T17:24:49.645Z,102083.28
2023-04-30T17:27:18.758Z,102080.63
2023-04-30T17:29:47.633Z,102082.47
2023-04-30T17:32:17.608Z,102082.53
2023-04-30T17:34:45.593Z,102080.63
2023-04-30T17:37:13.710Z,102083.16
2023-04-30T17:39:41.736Z,102082.00
2023-04-30T17:42:11.671Z,102080.00
2023-04-30T17:44:39.730Z,102078.13
2023-04-30T17:47:07.787Z,102075.53
2023-04-30T17:49:35.977Z,102080.13
2023-04-30T17:52:06.233Z,102075.81
2023-04-30T17:54:34.627Z,102079.56
2023-04-30T17:57:02.741Z,102077.03
2023-04-30T17:59:32.426Z,102082.47
2023-04-30T18:02:00.638Z,102076.41
2023-04-30T18:04:28.737Z,102076.47
2023-04-30T18:06:56.717Z,102070.28
2023-04-30T18:09:25.109Z,102065.00
2023-04-30T18:11:53.286Z,102071.38
2023-04-30T18:14:21.080Z,102069.66
2023-04-30T18:16:50.886Z,102074.22
2023-04-30T18:19:19.373Z,102068.91
2023-04-30T18:21:47.050Z,102068.97
2023-04-30T18:24:14.954Z,102065.44
2023-04-30T18:26:42.613Z,102070.88
2023-04-30T18:29:10.283Z,102063.78
2023-04-30T18:31:38.223Z,102064.69
2023-04-30T18:34:07.348Z,102068.34
2023-04-30T18:36:36.147Z,102059.44
2023-04-30T18:39:05.534Z,102057.72
2023-04-30T18:41:33.291Z,102054.19
2023-04-30T18:44:00.986Z,102056.91
2023-04-30T18:46:28.797Z,102059.66
2023-04-30T18:48:58.057Z,102052.56
2023-04-30T18:51:27.211Z,102054.38
2023-04-30T18:53:57.134Z,102057.13
2023-04-30T18:56:25.001Z,102051.81
2023-04-30T18:58:52.614Z,102048.31
2023-04-30T19:01:21.547Z,102058.16
2023-04-30T19:03:49.719Z,102052.84
2023-04-30T19:06:17.653Z,102054.66
2023-04-30T19:08:46.937Z,102057.31
2023-04-30T19:11:15.124Z,102060.03
2023-04-30T19:13:42.896Z,102064.56
2023-04-30T19:16:10.652Z,102057.44
2023-04-30T19:18:39.448Z,102061.94
2023-04-30T19:21:07.184Z,102059.25
2023-04-30T19:23:35.738Z,102058.44
2023-04-30T19:26:04.893Z,102062.94
2023-04-30T19:28:32.581Z,102057.59
2023-04-30T19:31:00.423Z,102059.41
2023-04-30T19:33:28.787Z,102060.31
2023-04-30T19:35:57.611Z,102061.03
2023-04-30T19:38:25.428Z,102064.34
2023-04-30T19:40:54.155Z,102050.63
2023-04-30T19:43:24.150Z,102062.00
2023-04-30T19:45:53.802Z,102061.00
2023-04-30T19:48:22.463Z,102061.66
2023-04-30T19:50:51.702Z,102059.72
2023-04-30T19:53:19.391Z,102055.97
2023-04-30T19:55:47.189Z,102047.84
2023-04-30T19:58:15.366Z,102052.34
2023-04-30T20:00:46.148Z,102045.16
2023-04-30T20:03:15.340Z,102052.34
2023-04-30T20:05:43.698Z,102048.78
2023-04-30T20:08:11.407Z,102051.44
2023-04-30T20:10:40.975Z,102041.63
2023-04-30T20:13:09.247Z,102042.53
2023-04-30T20:15:37.355Z,102042.53
2023-04-30T20:18:07.012Z,102037.13
2023-04-30T20:20:34.832Z,102037.13
2023-04-30T20:23:13.961Z,102033.56
2023-04-30T20:25:42.808Z,102033.50
2023-04-30T20:28:10.803Z,102037.13
2023-04-30T20:30:39.711Z,102024.63
2023-04-30T20:33:08.870Z,102029.06
2023-04-30T20:35:36.619Z,102025.50
2023-04-30T20:38:04.585Z,102021.91
2023-04-30T20:40:32.747Z,102021.00
2023-04-30T20:43:00.491Z,102027.28
2023-04-30T20:45:28.325Z,102026.31
2023-04-30T20:47:56.791Z,102020.94
2023-04-30T20:50:27.153Z,102027.19
2023-04-30T20:52:54.936Z,102018.22
2023-04-30T20:55:22.834Z,102015.53
2023-04-30T20:57:51.172Z,102013.69
2023-04-30T21:00:19.064Z,102012.78
2023-04-30T21:02:47.326Z,102015.47
2023-04-30T21:05:15.001Z,102008.50
2023-04-30T21:07:43.960Z,102002.34
2023-04-30T21:10:12.394Z,102000.75
2023-04-30T21:12:40.224Z,102003.63
2023-04-30T21:15:09.061Z,101993.91
2023-04-30T21:17:36.721Z,102001.22
2023-04-30T21:20:04.726Z,102002.13
2023-04-30T21:22:33.102Z,102000.53
2023-04-30T21:25:02.218Z,102001.50
2023-04-30T21:27:29.883Z,101993.56
2023-04-30T21:29:57.936Z,101998.16
2023-04-30T21:32:26.032Z,101992.03
2023-04-30T21:34:53.733Z,101988.56
2023-04-30T21:37:21.630Z,101986.84
2023-04-30T21:39:49.322Z,101980.63
2023-04-30T21:42:18.434Z,101987.88
2023-04-30T21:44:46.147Z,101980.78
2023-04-30T21:47:13.723Z,101973.75
2023-04-30T21:49:42.673Z,101980.94
2023-04-30T21:52:10.359Z,101980.13
2023-04-30T21:54:37.985Z,101978.41
2023-04-30T21:57:05.932Z,101970.41
2023-04-30T21:59:35.974Z,101968.66
2023-04-30T22:02:13.147Z,101966.94
2023-04-30T22:04:50.269Z,101964.31
2023-04-30T22:07:18.014Z,101955.41
2023-04-30T22:09:45.688Z,101957.25
2023-04-30T22:12:13.371Z,101956.41
2023-04-30T22:14:42.401Z,101955.53
2023-04-30T22:17:10.087Z,101944.00
2023-04-30T22:19:37.688Z,101941.34
2023-04-30T22:22:05.243Z,101947.69
2023-04-30T22:24:32.944Z,101938.72
2023-04-30T22:27:01.918Z,101936.09
2023-04-30T22:29:29.557Z,101940.59
2023-04-30T22:31:58.742Z,101940.59
2023-04-30T22:34:26.650Z,101937.09
2023-04-30T22:36:54.328Z,101942.47
2023-04-30T22:39:22.256Z,101938.94
2023-04-30T22:41:50.733Z,101931.81
2023-04-30T22:44:18.926Z,101936.28
2023-04-30T22:46:46.998Z,101930.03
2023-04-30T22:49:29.857Z,101933.63
2023-04-30T22:51:58.818Z,101931.91
2023-04-30T22:54:26.643Z,101937.28
2023-04-30T22:56:54.350Z,101940.00
2023-04-30T22:59:22.083Z,101926.63
2023-04-30T23:01:49.801Z,101931.09
2023-04-30T23:04:18.810Z,101924.84
2023-04-30T23:06:46.581Z,101934.75
2023-04-30T23:09:15.931Z,101932.97
2023-04-30T23:11:43.548Z,101933.88
2023-04-30T23:14:11.152Z,101932.13
2023-04-30T23:16:40.150Z,101926.75
2023-04-30T23:19:07.873Z,101928.59
2023-04-30T23:21:37.085Z,101932.16
2023-04-30T23:24:04.992Z,101927.75
2023-04-30T23:26:32.730Z,101927.75
2023-04-30T23:29:00.934Z,101928.66
2023-04-30T23:31:28.688Z,101928.66
2023-04-30T23:33:56.633Z,101924.25
2023-04-30T23:36:24.262Z,101923.38
2023-04-30T23:38:54.241Z,101916.25
2023-04-30T23:41:21.876Z,101917.16
2023-04-30T23:43:49.576Z,101907.38
2023-04-30T23:46:17.303Z,101899.34
2023-04-30T23:48:44.962Z,101911.88
2023-04-30T23:51:12.727Z,101909.22
2023-04-30T23:53:40.670Z,101905.63
2023-04-30T23:56:09.604Z,101896.78
2023-04-30T23:58:37.275Z,101893.19
